createdAt,value
2017-03-19T00:00:04.884Z,1007.35
2017-03-19T00:01:14.142Z,1007.29
2017-03-19T00:02:23.109Z,1007.29
2017-03-19T00:03:32.073Z,1007.24
2017-03-19T00:04:41.313Z,1007.22
2017-03-19T00:05:50.280Z,1007.19
2017-03-19T00:06:59.541Z,1007.24
2017-03-19T00:08:08.810Z,1007.18
2017-03-19T00:09:18.375Z,1007.13
2017-03-19T00:10:27.342Z,1007.06
2017-03-19T00:11:36.906Z,1007.12
2017-03-19T00:12:46.458Z,1007.18
2017-03-19T00:13:55.726Z,1007.17
2017-03-19T00:15:05.327Z,1007.2
2017-03-19T00:16:14.242Z,1007.19
2017-03-19T00:17:22.907Z,1007.21
2017-03-19T00:18:31.885Z,1007.17
2017-03-19T00:19:41.751Z,1007.22
2017-03-19T00:20:51.010Z,1007.22
2017-03-19T00:21:59.675Z,1007.19
2017-03-19T00:23:08.638Z,1007.23
2017-03-19T00:24:18.204Z,1007.26
2017-03-19T00:25:27.470Z,1007.17
2017-03-19T00:26:37.025Z,1007.23
2017-03-19T00:27:46.234Z,1007.25
2017-03-19T00:28:55.804Z,1007.29
2017-03-19T00:30:04.776Z,1007.3
2017-03-19T00:31:13.731Z,1007.24
2017-03-19T00:32:22.689Z,1007.25
2017-03-19T00:33:32.256Z,1007.26
2017-03-19T00:34:42.123Z,1007.23
2017-03-19T00:35:51.092Z,1007.28
2017-03-19T00:36:59.764Z,1007.24
2017-03-19T00:38:08.721Z,1007.25
2017-03-19T00:39:17.983Z,1007.25
2017-03-19T00:40:27.551Z,1007.2
2017-03-19T00:41:36.811Z,1007.2
2017-03-19T00:42:45.767Z,1007.22
2017-03-19T00:43:55.030Z,1007.21
2017-03-19T00:45:04.885Z,1007.28
2017-03-19T00:46:13.841Z,1007.28
2017-03-19T00:47:23.101Z,1007.28
2017-03-19T00:48:32.960Z,1007.28
2017-03-19T00:49:42.229Z,1007.23
2017-03-19T00:50:51.197Z,1007.23
2017-03-19T00:51:59.861Z,1007.23
2017-03-19T00:53:08.820Z,1007.26
2017-03-19T00:54:18.085Z,1007.3
2017-03-19T00:55:27.698Z,1007.3
2017-03-19T00:56:36.910Z,1007.37
2017-03-19T00:57:45.871Z,1007.34
2017-03-19T00:58:55.737Z,1007.3
2017-03-19T01:00:05.302Z,1007.24
2017-03-19T01:01:14.261Z,1007.23
2017-03-19T01:02:23.220Z,1007.28
2017-03-19T01:03:32.480Z,1007.22
2017-03-19T01:04:42.357Z,1007.25
2017-03-19T01:05:52.225Z,1007.25
2017-03-19T01:07:01.180Z,1007.2
2017-03-19T01:08:10.143Z,1007.17
2017-03-19T01:09:19.710Z,1007.13
2017-03-19T01:10:28.374Z,1007.18
2017-03-19T01:11:37.074Z,1007.17
2017-03-19T01:12:46.043Z,1007.22
2017-03-19T01:13:55.312Z,1007.28
2017-03-19T01:15:04.876Z,1007.25
2017-03-19T01:16:14.173Z,1007.26
2017-03-19T01:17:23.128Z,1007.18
2017-03-19T01:18:32.386Z,1007.17
2017-03-19T01:19:42.200Z,1007.22
2017-03-19T01:20:51.465Z,1007.12
2017-03-19T01:22:01.330Z,1007.18
2017-03-19T01:23:10.303Z,1007.15
2017-03-19T01:24:19.892Z,1007.05
2017-03-19T01:25:29.157Z,1007
2017-03-19T01:26:38.412Z,1006.96
2017-03-19T01:27:47.676Z,1006.94
2017-03-19T01:28:57.534Z,1006.94
2017-03-19T01:30:07.395Z,1006.95
2017-03-19T01:31:17.506Z,1006.92
2017-03-19T01:32:26.165Z,1006.92
2017-03-19T01:33:35.738Z,1006.91
2017-03-19T01:34:45.312Z,1006.91
2017-03-19T01:35:54.570Z,1006.88
2017-03-19T01:37:03.229Z,1006.89
2017-03-19T01:38:12.803Z,1006.87
2017-03-19T01:39:22.973Z,1006.91
2017-03-19T01:40:32.243Z,1006.88
2017-03-19T01:41:41.507Z,1006.89
2017-03-19T01:42:50.419Z,1006.95
2017-03-19T01:43:59.989Z,1006.92
2017-03-19T01:45:09.287Z,1006.91
2017-03-19T01:46:18.254Z,1006.93
2017-03-19T01:47:27.224Z,1006.94
2017-03-19T01:48:36.780Z,1006.94
2017-03-19T01:49:46.043Z,1006.93
2017-03-19T01:50:55.304Z,1006.95
2017-03-19T01:52:04.261Z,1006.88
2017-03-19T01:53:13.218Z,1006.88
2017-03-19T01:54:22.495Z,1006.86
2017-03-19T01:55:31.758Z,1006.83
2017-03-19T01:56:41.016Z,1006.82
2017-03-19T01:57:49.680Z,1006.81
2017-03-19T01:58:59.545Z,1006.9
2017-03-19T02:00:09.364Z,1006.83
2017-03-19T02:01:18.327Z,1006.82
2017-03-19T02:02:27.286Z,1006.83
2017-03-19T02:03:37.189Z,1006.77
2017-03-19T02:04:46.753Z,1006.82
2017-03-19T02:05:56.020Z,1006.8
2017-03-19T02:07:04.974Z,1006.81
2017-03-19T02:08:13.943Z,1006.76
2017-03-19T02:09:23.209Z,1006.73
2017-03-19T02:10:32.783Z,1006.71
2017-03-19T02:11:41.691Z,1006.71
2017-03-19T02:12:51.248Z,1006.61
2017-03-19T02:14:01.111Z,1006.65
2017-03-19T02:15:10.676Z,1006.57
2017-03-19T02:16:19.935Z,1006.52
2017-03-19T02:17:28.895Z,1006.52
2017-03-19T02:18:37.853Z,1006.56
2017-03-19T02:19:47.717Z,1006.57
2017-03-19T02:20:57.582Z,1006.61
2017-03-19T02:22:06.846Z,1006.6
2017-03-19T02:23:16.110Z,1006.66
2017-03-19T02:24:25.079Z,1006.65
2017-03-19T02:25:34.344Z,1006.62
2017-03-19T02:26:43.303Z,1006.64
2017-03-19T02:27:52.560Z,1006.59
2017-03-19T02:29:02.388Z,1006.5
2017-03-19T02:30:11.985Z,1006.49
2017-03-19T02:31:20.648Z,1006.49
2017-03-19T02:32:29.307Z,1006.51
2017-03-19T02:33:38.863Z,1006.47
2017-03-19T02:34:48.123Z,1006.55
2017-03-19T02:35:57.688Z,1006.59
2017-03-19T02:37:06.641Z,1006.58
2017-03-19T02:38:15.599Z,1006.6
2017-03-19T02:39:25.166Z,1006.63
2017-03-19T02:40:34.377Z,1006.62
2017-03-19T02:41:43.039Z,1006.64
2017-03-19T02:42:52.004Z,1006.6
2017-03-19T02:44:01.265Z,1006.51
2017-03-19T02:45:10.528Z,1006.45
2017-03-19T02:46:19.789Z,1006.48
2017-03-19T02:47:28.445Z,1006.42
2017-03-19T02:48:38.014Z,1006.41
2017-03-19T02:49:47.276Z,1006.43
2017-03-19T02:50:55.940Z,1006.46
2017-03-19T02:52:05.155Z,1006.41
2017-03-19T02:53:14.118Z,1006.36
2017-03-19T02:54:23.078Z,1006.34
2017-03-19T02:55:33.244Z,1006.36
2017-03-19T02:56:42.509Z,1006.27
2017-03-19T02:57:51.169Z,1006.26
2017-03-19T02:59:00.431Z,1006.21
2017-03-19T03:00:09.990Z,1006.2
2017-03-19T03:01:19.252Z,1006.14
2017-03-19T03:02:28.519Z,1006.19
2017-03-19T03:03:37.787Z,1006.14
2017-03-19T03:04:47.052Z,1006.15
2017-03-19T03:05:56.653Z,1006.13
2017-03-19T03:07:05.911Z,1006.11
2017-03-19T03:08:15.471Z,1006.1
2017-03-19T03:09:25.833Z,1006.17
2017-03-19T03:10:35.398Z,1006.12
2017-03-19T03:11:44.643Z,1006.06
2017-03-19T03:12:53.305Z,1006.12
2017-03-19T03:14:02.563Z,1006.15
2017-03-19T03:15:12.436Z,1006.23
2017-03-19T03:16:21.699Z,1006.28
2017-03-19T03:17:30.675Z,1006.32
2017-03-19T03:18:40.542Z,1006.3
2017-03-19T03:19:50.111Z,1006.3
2017-03-19T03:20:59.975Z,1006.29
2017-03-19T03:22:09.231Z,1006.34
2017-03-19T03:23:18.491Z,1006.25
2017-03-19T03:24:28.355Z,1006.16
2017-03-19T03:25:38.214Z,1006.15
2017-03-19T03:26:47.373Z,1006.13
2017-03-19T03:27:56.330Z,1006.21
2017-03-19T03:29:05.293Z,1006.19
2017-03-19T03:30:14.849Z,1006.24
2017-03-19T03:31:24.114Z,1006.22
2017-03-19T03:32:33.074Z,1006.23
2017-03-19T03:33:42.975Z,1006.21
2017-03-19T03:34:52.842Z,1006.25
2017-03-19T03:36:02.412Z,1006.33
2017-03-19T03:37:11.077Z,1006.34
2017-03-19T03:38:20.063Z,1006.39
2017-03-19T03:39:29.331Z,1006.33
2017-03-19T03:40:38.589Z,1006.34
2017-03-19T03:41:48.151Z,1006.33
2017-03-19T03:42:57.404Z,1006.25
2017-03-19T03:44:06.623Z,1006.21
2017-03-19T03:45:15.590Z,1006.12
2017-03-19T03:46:24.852Z,1006.08
2017-03-19T03:47:33.517Z,1006.07
2017-03-19T03:48:43.377Z,1006.06
2017-03-19T03:49:52.945Z,1006.04
2017-03-19T03:51:02.507Z,1006.01
2017-03-19T03:52:11.471Z,1005.96
2017-03-19T03:53:20.741Z,1005.97
2017-03-19T03:54:30.605Z,1005.86
2017-03-19T03:55:40.172Z,1005.89
2017-03-19T03:56:49.125Z,1005.87
2017-03-19T03:57:58.082Z,1005.87
2017-03-19T03:59:07.345Z,1005.84
2017-03-19T04:00:16.606Z,1005.79
2017-03-19T04:01:26.120Z,1005.86
2017-03-19T04:02:35.084Z,1005.81
2017-03-19T04:03:45.246Z,1005.9
2017-03-19T04:04:54.809Z,1005.9
2017-03-19T04:06:04.070Z,1005.82
2017-03-19T04:07:13.026Z,1005.86
2017-03-19T04:08:21.986Z,1005.87
2017-03-19T04:09:31.865Z,1005.9
2017-03-19T04:10:40.822Z,1005.96
2017-03-19T04:11:49.782Z,1005.94
2017-03-19T04:12:59.044Z,1006
2017-03-19T04:14:08.911Z,1005.96
2017-03-19T04:15:18.777Z,1005.89
2017-03-19T04:16:28.048Z,1005.9
2017-03-19T04:17:37.002Z,1005.83
2017-03-19T04:18:46.511Z,1005.84
2017-03-19T04:19:56.082Z,1005.87
2017-03-19T04:21:05.047Z,1005.93
2017-03-19T04:22:14.012Z,1005.92
2017-03-19T04:23:22.986Z,1005.95
2017-03-19T04:24:32.843Z,1005.89
2017-03-19T04:25:42.413Z,1005.92
2017-03-19T04:26:51.973Z,1005.87
2017-03-19T04:28:01.539Z,1005.87
2017-03-19T04:29:11.103Z,1005.88
2017-03-19T04:30:20.072Z,1005.92
2017-03-19T04:31:29.027Z,1005.88
2017-03-19T04:32:38.282Z,1005.83
2017-03-19T04:33:47.240Z,1005.91
2017-03-19T04:34:57.102Z,1005.78
2017-03-19T04:36:06.918Z,1005.77
2017-03-19T04:37:16.169Z,1005.83
2017-03-19T04:38:25.734Z,1005.78
2017-03-19T04:39:35.001Z,1005.78
2017-03-19T04:40:44.271Z,1005.87
2017-03-19T04:41:52.927Z,1005.86
2017-03-19T04:43:02.189Z,1005.86
2017-03-19T04:44:11.753Z,1005.78
2017-03-19T04:45:21.011Z,1005.74
2017-03-19T04:46:29.969Z,1005.74
2017-03-19T04:47:38.932Z,1005.78
2017-03-19T04:48:47.587Z,1005.77
2017-03-19T04:49:56.863Z,1005.71
2017-03-19T04:51:06.422Z,1005.89
2017-03-19T04:52:15.678Z,1005.82
2017-03-19T04:53:24.636Z,1005.82
2017-03-19T04:54:33.902Z,1005.9
2017-03-19T04:55:43.465Z,1005.84
2017-03-19T04:56:52.422Z,1005.78
2017-03-19T04:58:01.684Z,1005.83
2017-03-19T04:59:11.195Z,1005.78
2017-03-19T05:00:19.894Z,1005.89
2017-03-19T05:01:28.860Z,1005.85
2017-03-19T05:02:38.421Z,1005.87
2017-03-19T05:03:48.288Z,1005.86
2017-03-19T05:04:57.854Z,1005.86
2017-03-19T05:06:07.110Z,1005.85
2017-03-19T05:07:16.067Z,1005.85
2017-03-19T05:08:24.738Z,1005.92
2017-03-19T05:09:34.603Z,1005.88
2017-03-19T05:10:44.171Z,1005.82
2017-03-19T05:11:52.837Z,1005.87
2017-03-19T05:13:02.093Z,1005.88
2017-03-19T05:14:11.358Z,1005.9
2017-03-19T05:15:20.317Z,1005.91
2017-03-19T05:16:29.827Z,1005.89
2017-03-19T05:17:39.116Z,1005.96
2017-03-19T05:18:48.380Z,1005.95
2017-03-19T05:19:57.943Z,1005.92
2017-03-19T05:21:06.898Z,1005.94
2017-03-19T05:22:15.862Z,1005.93
2017-03-19T05:23:24.824Z,1005.98
2017-03-19T05:24:34.098Z,1005.93
2017-03-19T05:25:42.793Z,1005.92
2017-03-19T05:26:51.762Z,1005.9
2017-03-19T05:28:01.612Z,1006
2017-03-19T05:29:10.877Z,1005.88
2017-03-19T05:30:20.745Z,1005.91
2017-03-19T05:31:29.415Z,1005.96
2017-03-19T05:32:38.077Z,1005.88
2017-03-19T05:33:47.350Z,1005.91
2017-03-19T05:34:56.930Z,1005.93
2017-03-19T05:36:06.211Z,1005.97
2017-03-19T05:37:15.171Z,1006.02
2017-03-19T05:38:24.429Z,1005.99
2017-03-19T05:39:33.687Z,1005.96
2017-03-19T05:40:42.942Z,1005.87
2017-03-19T05:41:52.210Z,1005.8
2017-03-19T05:43:01.204Z,1005.72
2017-03-19T05:44:10.769Z,1005.65
2017-03-19T05:45:20.296Z,1005.49
2017-03-19T05:46:29.262Z,1005.49
2017-03-19T05:47:38.530Z,1005.5
2017-03-19T05:48:47.792Z,1005.48
2017-03-19T05:49:57.067Z,1005.49
2017-03-19T05:51:06.040Z,1005.46
2017-03-19T05:52:15.311Z,1005.44
2017-03-19T05:53:24.583Z,1005.43
2017-03-19T05:54:34.152Z,1005.4
2017-03-19T05:55:43.112Z,1005.41
2017-03-19T05:56:52.083Z,1005.47
2017-03-19T05:58:01.638Z,1005.41
2017-03-19T05:59:10.898Z,1005.45
2017-03-19T06:00:20.458Z,1005.35
2017-03-19T06:01:29.419Z,1005.45
2017-03-19T06:02:38.640Z,1005.44
2017-03-19T06:03:48.207Z,1005.36
2017-03-19T06:04:58.066Z,1005.37
2017-03-19T06:06:07.022Z,1005.35
2017-03-19T06:07:15.987Z,1005.35
2017-03-19T06:08:24.945Z,1005.4
2017-03-19T06:09:34.208Z,1005.42
2017-03-19T06:10:43.768Z,1005.39
2017-03-19T06:11:52.726Z,1005.43
2017-03-19T06:13:02.284Z,1005.41
2017-03-19T06:14:12.119Z,1005.41
2017-03-19T06:15:21.388Z,1005.42
2017-03-19T06:16:30.049Z,1005.36
2017-03-19T06:17:39.015Z,1005.45
2017-03-19T06:18:48.280Z,1005.44
2017-03-19T06:19:57.845Z,1005.4
2017-03-19T06:21:06.814Z,1005.43
2017-03-19T06:22:15.480Z,1005.44
2017-03-19T06:23:24.758Z,1005.38
2017-03-19T06:24:34.324Z,1005.42
2017-03-19T06:25:43.837Z,1005.45
2017-03-19T06:26:52.792Z,1005.4
2017-03-19T06:28:02.057Z,1005.38
2017-03-19T06:29:11.618Z,1005.33
2017-03-19T06:30:21.478Z,1005.37
2017-03-19T06:31:30.138Z,1005.31
2017-03-19T06:32:38.793Z,1005.34
2017-03-19T06:33:48.351Z,1005.29
2017-03-19T06:34:57.618Z,1005.29
2017-03-19T06:36:06.880Z,1005.3
2017-03-19T06:37:15.788Z,1005.28
2017-03-19T06:38:25.051Z,1005.24
2017-03-19T06:39:33.719Z,1005.18
2017-03-19T06:40:42.390Z,1005.27
2017-03-19T06:41:51.047Z,1005.24
2017-03-19T06:42:59.702Z,1005.28
2017-03-19T06:44:09.567Z,1005.24
2017-03-19T06:45:18.518Z,1005.18
2017-03-19T06:46:27.181Z,1005.22
2017-03-19T06:47:35.839Z,1005.23
2017-03-19T06:48:45.359Z,1005.15
2017-03-19T06:49:54.624Z,1005.14
2017-03-19T06:51:03.297Z,1005.17
2017-03-19T06:52:12.257Z,1005.22
2017-03-19T06:53:22.125Z,1005.36
2017-03-19T06:54:31.699Z,1005.38
2017-03-19T06:55:40.962Z,1005.38
2017-03-19T06:56:49.618Z,1005.45
2017-03-19T06:57:58.587Z,1005.42
2017-03-19T06:59:07.572Z,1005.44
2017-03-19T07:00:17.090Z,1005.45
2017-03-19T07:01:25.747Z,1005.43
2017-03-19T07:02:34.709Z,1005.4
2017-03-19T07:03:43.989Z,1005.36
2017-03-19T07:04:53.857Z,1005.42
2017-03-19T07:06:03.125Z,1005.4
2017-03-19T07:07:11.779Z,1005.38
2017-03-19T07:08:21.346Z,1005.4
2017-03-19T07:09:31.212Z,1005.44
2017-03-19T07:10:40.854Z,1005.45
2017-03-19T07:11:50.069Z,1005.46
2017-03-19T07:12:59.331Z,1005.42
2017-03-19T07:14:08.301Z,1005.36
2017-03-19T07:15:17.265Z,1005.31
2017-03-19T07:16:26.826Z,1005.31
2017-03-19T07:17:36.085Z,1005.36
2017-03-19T07:18:45.651Z,1005.35
2017-03-19T07:19:55.218Z,1005.31
2017-03-19T07:21:04.486Z,1005.31
2017-03-19T07:22:13.450Z,1005.24
2017-03-19T07:23:22.969Z,1005.3
2017-03-19T07:24:32.840Z,1005.22
2017-03-19T07:25:41.799Z,1005.28
2017-03-19T07:26:51.056Z,1005.32
2017-03-19T07:28:00.630Z,1005.3
2017-03-19T07:29:09.595Z,1005.37
2017-03-19T07:30:19.489Z,1005.44
2017-03-19T07:31:28.451Z,1005.4
2017-03-19T07:32:37.120Z,1005.41
2017-03-19T07:33:46.987Z,1005.43
2017-03-19T07:34:56.451Z,1005.37
2017-03-19T07:36:06.341Z,1005.49
2017-03-19T07:37:15.305Z,1005.49
2017-03-19T07:38:24.881Z,1005.41
2017-03-19T07:39:34.144Z,1005.49
2017-03-19T07:40:43.704Z,1005.38
2017-03-19T07:41:52.367Z,1005.55
2017-03-19T07:43:01.629Z,1005.46
2017-03-19T07:44:11.497Z,1005.53
2017-03-19T07:45:20.758Z,1005.57
2017-03-19T07:46:29.670Z,1005.48
2017-03-19T07:47:38.635Z,1005.52
2017-03-19T07:48:48.202Z,1005.42
2017-03-19T07:49:57.469Z,1005.52
2017-03-19T07:51:06.735Z,1005.56
2017-03-19T07:52:15.406Z,1005.58
2017-03-19T07:53:24.669Z,1005.47
2017-03-19T07:54:33.639Z,1005.52
2017-03-19T07:55:43.203Z,1005.49
2017-03-19T07:56:51.864Z,1005.45
2017-03-19T07:58:00.774Z,1005.52
2017-03-19T07:59:10.035Z,1005.45
2017-03-19T08:00:19.937Z,1005.52
2017-03-19T08:01:29.199Z,1005.57
2017-03-19T08:02:38.466Z,1005.61
2017-03-19T08:03:48.035Z,1005.54
2017-03-19T08:04:57.602Z,1005.63
2017-03-19T08:06:06.558Z,1005.69
2017-03-19T08:07:15.827Z,1005.68
2017-03-19T08:08:24.823Z,1005.58
2017-03-19T08:09:34.888Z,1005.65
2017-03-19T08:10:43.849Z,1005.63
2017-03-19T08:11:52.506Z,1005.53
2017-03-19T08:13:01.468Z,1005.64
2017-03-19T08:14:10.435Z,1005.7
2017-03-19T08:15:20.004Z,1005.76
2017-03-19T08:16:28.967Z,1005.62
2017-03-19T08:17:38.238Z,1005.55
2017-03-19T08:18:48.400Z,1005.67
2017-03-19T08:19:57.664Z,1005.61
2017-03-19T08:21:06.885Z,1005.57
2017-03-19T08:22:15.851Z,1005.68
2017-03-19T08:23:25.710Z,1005.57
2017-03-19T08:24:35.573Z,1005.54
2017-03-19T08:25:44.841Z,1005.71
2017-03-19T08:26:53.800Z,1005.68
2017-03-19T08:28:03.070Z,1005.56
2017-03-19T08:29:12.034Z,1005.53
2017-03-19T08:30:21.305Z,1005.57
2017-03-19T08:31:30.578Z,1005.61
2017-03-19T08:32:39.488Z,1005.58
2017-03-19T08:33:49.056Z,1005.63
2017-03-19T08:34:58.921Z,1005.52
2017-03-19T08:36:08.200Z,1005.62
2017-03-19T08:37:17.467Z,1005.59
2017-03-19T08:38:27.285Z,1005.54
2017-03-19T08:39:36.855Z,1005.56
2017-03-19T08:40:46.116Z,1005.53
2017-03-19T08:41:55.081Z,1005.47
2017-03-19T08:43:04.652Z,1005.46
2017-03-19T08:44:13.922Z,1005.5
2017-03-19T08:45:23.178Z,1005.58
2017-03-19T08:46:32.149Z,1005.51
2017-03-19T08:47:41.412Z,1005.48
2017-03-19T08:48:50.982Z,1005.47
2017-03-19T08:50:00.495Z,1005.42
2017-03-19T08:51:09.454Z,1005.46
2017-03-19T08:52:18.112Z,1005.48
2017-03-19T08:53:26.774Z,1005.49
2017-03-19T08:54:36.658Z,1005.53
2017-03-19T08:55:45.880Z,1005.59
2017-03-19T08:56:54.843Z,1005.59
2017-03-19T08:58:04.114Z,1005.48
2017-03-19T08:59:13.677Z,1005.54
2017-03-19T09:00:22.939Z,1005.59
2017-03-19T09:01:32.203Z,1005.47
2017-03-19T09:02:41.494Z,1005.63
2017-03-19T09:03:50.459Z,1005.67
2017-03-19T09:04:59.428Z,1005.63
2017-03-19T09:06:08.392Z,1005.62
2017-03-19T09:07:17.358Z,1005.59
2017-03-19T09:08:26.926Z,1005.67
2017-03-19T09:09:36.802Z,1005.67
2017-03-19T09:10:45.769Z,1005.65
2017-03-19T09:11:54.734Z,1005.64
2017-03-19T09:13:03.693Z,1005.56
2017-03-19T09:14:12.350Z,1005.63
2017-03-19T09:15:22.225Z,1005.76
2017-03-19T09:16:31.486Z,1005.77
2017-03-19T09:17:41.047Z,1005.77
2017-03-19T09:18:50.873Z,1005.76
2017-03-19T09:20:00.439Z,1005.69
2017-03-19T09:21:09.701Z,1005.72
2017-03-19T09:22:18.359Z,1005.7
2017-03-19T09:23:27.620Z,1005.73
2017-03-19T09:24:37.190Z,1005.74
2017-03-19T09:25:46.455Z,1005.68
2017-03-19T09:26:55.717Z,1005.84
2017-03-19T09:28:04.985Z,1005.8
2017-03-19T09:29:14.856Z,1005.78
2017-03-19T09:30:25.275Z,1005.75
2017-03-19T09:31:34.541Z,1005.74
2017-03-19T09:32:43.204Z,1005.74
2017-03-19T09:33:53.072Z,1005.66
2017-03-19T09:35:02.353Z,1005.74
2017-03-19T09:36:11.613Z,1005.67
2017-03-19T09:37:20.274Z,1005.64
2017-03-19T09:38:29.536Z,1005.58
2017-03-19T09:39:39.103Z,1005.52
2017-03-19T09:40:48.073Z,1005.65
2017-03-19T09:41:57.634Z,1005.64
2017-03-19T09:43:06.900Z,1005.55
2017-03-19T09:44:16.469Z,1005.61
2017-03-19T09:45:26.042Z,1005.57
2017-03-19T09:46:34.703Z,1005.59
2017-03-19T09:47:43.970Z,1005.56
2017-03-19T09:48:52.634Z,1005.51
2017-03-19T09:50:01.317Z,1005.47
2017-03-19T09:51:10.582Z,1005.52
2017-03-19T09:52:20.144Z,1005.55
2017-03-19T09:53:29.707Z,1005.37
2017-03-19T09:54:39.284Z,1005.52
2017-03-19T09:55:48.851Z,1005.55
2017-03-19T09:56:57.812Z,1005.46
2017-03-19T09:58:07.075Z,1005.56
2017-03-19T09:59:16.638Z,1005.52
2017-03-19T10:00:25.906Z,1005.46
2017-03-19T10:01:34.867Z,1005.49
2017-03-19T10:02:43.833Z,1005.45
2017-03-19T10:03:53.103Z,1005.43
2017-03-19T10:05:02.626Z,1005.37
2017-03-19T10:06:11.885Z,1005.47
2017-03-19T10:07:20.849Z,1005.45
2017-03-19T10:08:29.811Z,1005.5
2017-03-19T10:09:39.676Z,1005.56
2017-03-19T10:10:48.949Z,1005.38
2017-03-19T10:11:57.910Z,1005.47
2017-03-19T10:13:06.874Z,1005.51
2017-03-19T10:14:16.148Z,1005.5
2017-03-19T10:15:25.416Z,1005.49
2017-03-19T10:16:34.681Z,1005.39
2017-03-19T10:17:43.375Z,1005.48
2017-03-19T10:18:52.643Z,1005.39
2017-03-19T10:20:02.215Z,1005.31
2017-03-19T10:21:11.185Z,1005.27
2017-03-19T10:22:20.408Z,1005.26
2017-03-19T10:23:29.375Z,1005.18
2017-03-19T10:24:38.941Z,1005.34
2017-03-19T10:25:48.526Z,1005.31
2017-03-19T10:26:57.212Z,1005.28
2017-03-19T10:28:06.480Z,1005.26
2017-03-19T10:29:16.044Z,1005.22
2017-03-19T10:30:25.313Z,1005.15
2017-03-19T10:31:33.987Z,1005.32
2017-03-19T10:32:42.953Z,1005.18
2017-03-19T10:33:52.523Z,1005.22
2017-03-19T10:35:02.092Z,1005.21
2017-03-19T10:36:11.353Z,1005.26
2017-03-19T10:37:20.313Z,1005.28
2017-03-19T10:38:29.269Z,1005.11
2017-03-19T10:39:38.844Z,1005.33
2017-03-19T10:40:47.810Z,1005.37
2017-03-19T10:41:56.780Z,1005.38
2017-03-19T10:43:06.356Z,1005.42
2017-03-19T10:44:15.625Z,1005.42
2017-03-19T10:45:25.442Z,1005.48
2017-03-19T10:46:34.137Z,1005.42
2017-03-19T10:47:42.799Z,1005.49
2017-03-19T10:48:52.371Z,1005.55
2017-03-19T10:50:01.661Z,1005.31
2017-03-19T10:51:10.923Z,1005.44
2017-03-19T10:52:19.584Z,1005.45
2017-03-19T10:53:28.548Z,1005.26
2017-03-19T10:54:37.851Z,1005.28
2017-03-19T10:55:47.116Z,1005.23
2017-03-19T10:56:56.078Z,1005.21
2017-03-19T10:58:05.348Z,1005.19
2017-03-19T10:59:15.212Z,1005.25
2017-03-19T11:00:24.181Z,1005.16
2017-03-19T11:01:32.847Z,1005.01
2017-03-19T11:02:41.815Z,1005.13
2017-03-19T11:03:51.387Z,1005.07
2017-03-19T11:05:00.359Z,1004.91
2017-03-19T11:06:09.948Z,1005.04
2017-03-19T11:07:18.913Z,1005.02
2017-03-19T11:08:27.575Z,1004.78
2017-03-19T11:09:37.441Z,1004.78
2017-03-19T11:10:46.406Z,1004.83
2017-03-19T11:11:55.402Z,1004.76
2017-03-19T11:13:04.963Z,1004.7
2017-03-19T11:14:14.531Z,1004.67
2017-03-19T11:15:23.805Z,1004.7
2017-03-19T11:16:32.800Z,1004.8
2017-03-19T11:17:41.761Z,1004.9
2017-03-19T11:18:51.330Z,1005.07
2017-03-19T11:20:00.847Z,1005.11
2017-03-19T11:21:09.807Z,1005.04
2017-03-19T11:22:18.770Z,1005.06
2017-03-19T11:23:27.741Z,1005.05
2017-03-19T11:24:37.615Z,1005.16
2017-03-19T11:25:46.582Z,1005.08
2017-03-19T11:26:55.249Z,1005.1
2017-03-19T11:28:03.917Z,1005.15
2017-03-19T11:29:13.812Z,1005.11
2017-03-19T11:30:23.381Z,1005.15
2017-03-19T11:31:32.606Z,1005.11
2017-03-19T11:32:41.867Z,1005.11
2017-03-19T11:33:50.846Z,1005.07
2017-03-19T11:35:00.111Z,1005.16
2017-03-19T11:36:09.074Z,1005.27
2017-03-19T11:37:17.738Z,1005.14
2017-03-19T11:38:27.007Z,1005.2
2017-03-19T11:39:35.670Z,1005.22
2017-03-19T11:40:44.938Z,1005.22
2017-03-19T11:41:54.504Z,1005.31
2017-03-19T11:43:04.334Z,1005.36
2017-03-19T11:44:13.346Z,1005.38
2017-03-19T11:45:23.216Z,1005.36
2017-03-19T11:46:31.874Z,1005.39
2017-03-19T11:47:40.838Z,1005.34
2017-03-19T11:48:50.715Z,1005.38
2017-03-19T11:50:00.283Z,1005.33
2017-03-19T11:51:09.244Z,1005.32
2017-03-19T11:52:18.208Z,1005.36
2017-03-19T11:53:27.171Z,1005.43
2017-03-19T11:54:36.692Z,1005.44
2017-03-19T11:55:45.968Z,1005.46
2017-03-19T11:56:54.636Z,1005.46
2017-03-19T11:58:03.911Z,1005.52
2017-03-19T11:59:13.185Z,1005.46
2017-03-19T12:00:22.705Z,1005.44
2017-03-19T12:01:31.684Z,1005.44
2017-03-19T12:02:40.352Z,1005.46
2017-03-19T12:03:49.313Z,1005.34
2017-03-19T12:04:59.181Z,1005.42
2017-03-19T12:06:08.788Z,1005.34
2017-03-19T12:07:17.755Z,1005.3
2017-03-19T12:08:27.625Z,1005.25
2017-03-19T12:09:37.244Z,1005.37
2017-03-19T12:10:45.947Z,1005.3
2017-03-19T12:11:54.865Z,1005.2
2017-03-19T12:13:04.139Z,1005.19
2017-03-19T12:14:13.705Z,1005.26
2017-03-19T12:15:23.282Z,1005.28
2017-03-19T12:16:32.546Z,1005.25
2017-03-19T12:17:41.515Z,1005.32
2017-03-19T12:18:51.388Z,1005.26
2017-03-19T12:20:00.355Z,1005.28
2017-03-19T12:21:09.320Z,1005.34
2017-03-19T12:22:18.282Z,1005.32
2017-03-19T12:23:27.494Z,1005.34
2017-03-19T12:24:36.764Z,1005.29
2017-03-19T12:25:46.333Z,1005.47
2017-03-19T12:26:55.294Z,1005.44
2017-03-19T12:28:04.874Z,1005.44
2017-03-19T12:29:14.438Z,1005.27
2017-03-19T12:30:24.015Z,1005.4
2017-03-19T12:31:32.985Z,1005.52
2017-03-19T12:32:41.968Z,1005.37
2017-03-19T12:33:51.551Z,1005.39
2017-03-19T12:35:00.769Z,1005.3
2017-03-19T12:36:09.443Z,1005.24
2017-03-19T12:37:18.105Z,1005.22
2017-03-19T12:38:27.073Z,1005.28
2017-03-19T12:39:36.341Z,1005.3
2017-03-19T12:40:45.613Z,1005.2
2017-03-19T12:41:54.278Z,1005.28
2017-03-19T12:43:03.269Z,1005.19
2017-03-19T12:44:12.533Z,1005.31
2017-03-19T12:45:21.805Z,1005.29
2017-03-19T12:46:30.471Z,1005.18
2017-03-19T12:47:39.444Z,1005.19
2017-03-19T12:48:49.311Z,1005.2
2017-03-19T12:49:59.179Z,1005.06
2017-03-19T12:51:08.149Z,1005.1
2017-03-19T12:52:17.996Z,1005.03
2017-03-19T12:53:26.970Z,1005
2017-03-19T12:54:36.839Z,1005.01
2017-03-19T12:55:46.259Z,1005.05
2017-03-19T12:56:55.227Z,1005.02
2017-03-19T12:58:04.497Z,1005.15
2017-03-19T12:59:13.771Z,1005.05
2017-03-19T13:00:23.340Z,1005.13
2017-03-19T13:01:32.311Z,1004.96
2017-03-19T13:02:41.282Z,1004.98
2017-03-19T13:03:51.403Z,1004.99
2017-03-19T13:05:00.979Z,1004.95
2017-03-19T13:06:10.250Z,1004.94
2017-03-19T13:07:19.217Z,1004.85
2017-03-19T13:08:28.183Z,1004.85
2017-03-19T13:09:37.451Z,1004.8
2017-03-19T13:10:46.423Z,1004.75
2017-03-19T13:11:55.086Z,1004.82
2017-03-19T13:13:04.054Z,1004.85
2017-03-19T13:14:13.024Z,1004.95
2017-03-19T13:15:21.953Z,1004.8
2017-03-19T13:16:31.213Z,1004.67
2017-03-19T13:17:40.477Z,1004.77
2017-03-19T13:18:50.048Z,1004.68
2017-03-19T13:19:59.622Z,1004.65
2017-03-19T13:21:08.581Z,1004.53
2017-03-19T13:22:17.553Z,1004.5
2017-03-19T13:23:26.822Z,1004.5
2017-03-19T13:24:35.793Z,1004.58
2017-03-19T13:25:45.362Z,1004.58
2017-03-19T13:26:54.880Z,1004.59
2017-03-19T13:28:04.447Z,1004.6
2017-03-19T13:29:14.022Z,1004.54
2017-03-19T13:30:23.293Z,1004.55
2017-03-19T13:31:32.262Z,1004.46
2017-03-19T13:32:40.930Z,1004.5
2017-03-19T13:33:49.902Z,1004.68
2017-03-19T13:34:59.175Z,1004.67
2017-03-19T13:36:08.138Z,1004.77
2017-03-19T13:37:17.121Z,1004.84
2017-03-19T13:38:26.368Z,1004.8
2017-03-19T13:39:35.944Z,1004.9
2017-03-19T13:40:45.216Z,1004.92
2017-03-19T13:41:53.892Z,1004.97
2017-03-19T13:43:02.861Z,1005.07
2017-03-19T13:44:13.070Z,1004.91
2017-03-19T13:45:22.643Z,1005.03
2017-03-19T13:46:31.304Z,1004.99
2017-03-19T13:47:40.309Z,1004.79
2017-03-19T13:48:49.585Z,1005
2017-03-19T13:49:59.117Z,1005.01
2017-03-19T13:51:08.084Z,1004.92
2017-03-19T13:52:17.044Z,1004.89
2017-03-19T13:53:26.607Z,1004.8
2017-03-19T13:54:36.173Z,1004.76
2017-03-19T13:55:45.442Z,1004.87
2017-03-19T13:56:54.406Z,1004.82
2017-03-19T13:58:03.074Z,1004.72
2017-03-19T13:59:12.651Z,1004.74
2017-03-19T14:00:22.530Z,1004.72